createdAt,value
2019-03-29T00:00:35.802Z,6.68
2019-03-29T00:03:05.833Z,6.72
2019-03-29T00:05:35.142Z,6.79
2019-03-29T00:08:04.447Z,6.68
2019-03-29T00:10:33.797Z,6.53
2019-03-29T00:13:03.132Z,6.51
2019-03-29T00:15:33.314Z,6.51
2019-03-29T00:18:03.197Z,6.35
2019-03-29T00:20:32.517Z,6.48
2019-03-29T00:23:01.805Z,6.52
2019-03-29T00:25:31.127Z,6.60
2019-03-29T00:28:00.433Z,6.51
2019-03-29T00:30:29.750Z,6.25
2019-03-29T00:32:59.038Z,6.11
2019-03-29T00:35:28.353Z,6.05
2019-03-29T00:37:57.640Z,6.05
2019-03-29T00:40:26.956Z,6.18
2019-03-29T00:42:56.254Z,6.18
2019-03-29T00:45:25.574Z,6.08
2019-03-29T00:47:55.974Z,6.27
2019-03-29T00:50:25.649Z,6.17
2019-03-29T00:52:54.957Z,6.33
2019-03-29T00:55:24.559Z,6.18
2019-03-29T00:57:53.872Z,6.18
2019-03-29T01:00:23.244Z,6.03
2019-03-29T01:02:52.581Z,6.00
2019-03-29T01:05:21.913Z,5.61
2019-03-29T01:07:51.231Z,5.51
2019-03-29T01:10:20.529Z,5.47
2019-03-29T01:12:49.851Z,5.21
2019-03-29T01:15:19.154Z,5.21
2019-03-29T01:17:48.477Z,5.30
2019-03-29T01:20:18.237Z,5.37
2019-03-29T01:22:47.562Z,5.67
2019-03-29T01:25:16.850Z,5.77
2019-03-29T01:27:46.322Z,5.66
2019-03-29T01:30:16.214Z,5.64
2019-03-29T01:32:45.535Z,5.70
2019-03-29T01:35:15.481Z,5.63
2019-03-29T01:37:45.985Z,5.53
2019-03-29T01:40:16.125Z,5.57
2019-03-29T01:42:45.470Z,5.32
2019-03-29T01:45:15.134Z,5.27
2019-03-29T01:47:44.442Z,5.08
2019-03-29T01:50:14.534Z,5.39
2019-03-29T01:52:43.846Z,5.46
2019-03-29T01:55:13.209Z,5.07
2019-03-29T01:57:42.768Z,4.92
2019-03-29T02:00:15.452Z,5.13
2019-03-29T02:02:44.774Z,5.43
2019-03-29T02:05:14.084Z,5.26
2019-03-29T02:07:43.598Z,5.24
2019-03-29T02:10:13.450Z,5.24
2019-03-29T02:12:42.756Z,4.95
2019-03-29T02:15:12.260Z,5.14
2019-03-29T02:17:41.886Z,5.25
2019-03-29T02:20:11.933Z,5.02
2019-03-29T02:22:41.256Z,5.07
2019-03-29T02:25:10.681Z,4.90
2019-03-29T02:27:39.997Z,4.89
2019-03-29T02:30:10.230Z,4.82
2019-03-29T02:32:39.544Z,4.68
2019-03-29T02:35:08.997Z,4.64
2019-03-29T02:37:41.432Z,5.06
2019-03-29T02:40:11.456Z,5.28
2019-03-29T02:42:42.773Z,5.35
2019-03-29T02:45:12.321Z,5.43
2019-03-29T02:47:41.645Z,5.23
2019-03-29T02:50:11.051Z,4.92
2019-03-29T02:52:40.431Z,4.79
2019-03-29T02:55:18.456Z,5.00
2019-03-29T02:57:47.751Z,5.13
2019-03-29T03:00:17.915Z,5.23
2019-03-29T03:02:47.202Z,5.11
2019-03-29T03:05:19.227Z,5.28
2019-03-29T03:07:50.197Z,5.20
2019-03-29T03:10:20.352Z,4.92
2019-03-29T03:12:50.041Z,4.99
2019-03-29T03:15:19.610Z,4.97
2019-03-29T03:17:51.670Z,4.80
2019-03-29T03:20:21.207Z,4.82
2019-03-29T03:22:50.553Z,4.68
2019-03-29T03:25:19.888Z,4.57
2019-03-29T03:27:49.197Z,4.62
2019-03-29T03:30:19.160Z,4.48
2019-03-29T03:32:48.501Z,4.42
2019-03-29T03:35:18.143Z,4.44
2019-03-29T03:37:47.463Z,4.53
2019-03-29T03:40:17.246Z,4.66
2019-03-29T03:42:46.515Z,4.62
2019-03-29T03:45:16.108Z,4.64
2019-03-29T03:47:45.796Z,4.52
2019-03-29T03:50:24.759Z,4.63
2019-03-29T03:52:54.096Z,4.68
2019-03-29T03:55:23.786Z,4.73
2019-03-29T03:57:57.438Z,4.48
2019-03-29T04:00:27.586Z,4.66
2019-03-29T04:02:56.910Z,4.58
2019-03-29T04:05:26.304Z,4.55
2019-03-29T04:07:55.628Z,4.50
2019-03-29T04:10:25.382Z,4.61
2019-03-29T04:12:54.706Z,4.65
2019-03-29T04:15:24.003Z,4.67
2019-03-29T04:17:53.315Z,4.44
2019-03-29T04:20:22.683Z,4.27
2019-03-29T04:22:51.993Z,4.36
2019-03-29T04:25:21.312Z,4.32
2019-03-29T04:27:50.642Z,4.19
2019-03-29T04:30:20.218Z,4.18
2019-03-29T04:32:49.532Z,4.33
2019-03-29T04:35:18.838Z,4.54
2019-03-29T04:37:48.166Z,4.57
2019-03-29T04:40:17.457Z,4.27
2019-03-29T04:42:46.773Z,4.10
2019-03-29T04:45:16.273Z,4.23
2019-03-29T04:47:45.636Z,4.15
2019-03-29T04:50:15.123Z,4.14
2019-03-29T04:52:44.415Z,4.18
2019-03-29T04:55:14.164Z,4.16
2019-03-29T04:57:43.491Z,4.24
2019-03-29T05:00:14.218Z,4.16
2019-03-29T05:02:43.531Z,4.06
2019-03-29T05:05:13.384Z,4.10
2019-03-29T05:07:42.783Z,4.14
2019-03-29T05:10:21.217Z,4.19
2019-03-29T05:12:43.665Z,4.21
2019-03-29T05:15:13.143Z,4.19
2019-03-29T05:17:42.445Z,4.14
2019-03-29T05:20:11.856Z,4.26
2019-03-29T05:22:41.127Z,4.38
2019-03-29T05:25:10.836Z,4.20
2019-03-29T05:27:40.230Z,4.03
2019-03-29T05:30:09.757Z,4.13
2019-03-29T05:32:39.063Z,4.16
2019-03-29T05:35:08.416Z,4.04
2019-03-29T05:37:37.796Z,4.03
2019-03-29T05:40:07.218Z,3.92
2019-03-29T05:42:36.539Z,4.01
2019-03-29T05:45:09.769Z,4.36
2019-03-29T05:47:39.083Z,4.54
2019-03-29T05:50:09.433Z,4.74
2019-03-29T05:52:38.816Z,4.87
2019-03-29T05:55:08.846Z,4.88
2019-03-29T05:57:38.171Z,4.75
2019-03-29T06:00:10.078Z,4.69
2019-03-29T06:02:39.807Z,4.87
2019-03-29T06:05:09.284Z,5.41
2019-03-29T06:07:38.583Z,5.70
2019-03-29T06:10:08.523Z,6.40
2019-03-29T06:12:38.268Z,6.87
2019-03-29T06:15:08.691Z,6.87
2019-03-29T06:17:47.904Z,7.55
2019-03-29T06:20:09.863Z,8.09
2019-03-29T06:22:39.165Z,8.09
2019-03-29T06:25:10.242Z,7.80
2019-03-29T06:27:39.720Z,7.80
2019-03-29T06:30:10.648Z,8.10
2019-03-29T06:32:40.077Z,9.06
2019-03-29T06:35:09.767Z,9.08
2019-03-29T06:37:41.712Z,9.41
2019-03-29T06:40:14.085Z,10.24
2019-03-29T06:42:43.372Z,11.12
2019-03-29T06:45:13.064Z,10.57
2019-03-29T06:47:42.350Z,10.06
2019-03-29T06:50:14.043Z,10.46
2019-03-29T06:52:42.795Z,10.72
2019-03-29T06:55:12.108Z,10.95
2019-03-29T06:57:41.688Z,11.74
2019-03-29T07:00:11.096Z,12.32
2019-03-29T07:02:40.825Z,12.03
2019-03-29T07:05:10.469Z,12.18
2019-03-29T07:07:40.205Z,12.40
2019-03-29T07:10:09.764Z,12.28
2019-03-29T07:12:39.393Z,12.36
2019-03-29T07:15:08.820Z,12.82
2019-03-29T07:17:38.138Z,12.76
2019-03-29T07:20:08.149Z,13.30
2019-03-29T07:22:37.438Z,12.91
2019-03-29T07:25:08.390Z,12.55
2019-03-29T07:27:44.692Z,12.61
2019-03-29T07:30:10.342Z,12.19
2019-03-29T07:32:39.627Z,12.02
2019-03-29T07:35:09.266Z,11.74
2019-03-29T07:37:38.578Z,11.65
2019-03-29T07:40:08.730Z,11.44
2019-03-29T07:42:38.027Z,11.81
2019-03-29T07:45:10.143Z,12.12
2019-03-29T07:47:38.717Z,12.30
2019-03-29T07:50:08.341Z,13.22
2019-03-29T07:52:37.747Z,13.53
2019-03-29T07:55:07.765Z,14.70
2019-03-29T07:57:37.080Z,15.06
2019-03-29T08:00:07.611Z,15.71
2019-03-29T08:02:36.977Z,15.62
2019-03-29T08:05:07.228Z,15.19
2019-03-29T08:07:36.630Z,14.45
2019-03-29T08:10:07.197Z,16.69
2019-03-29T08:12:36.526Z,17.75
2019-03-29T08:15:09.449Z,17.83
2019-03-29T08:17:38.448Z,18.10
2019-03-29T08:20:37.395Z,17.41
2019-03-29T08:22:39.575Z,18.05
2019-03-29T08:27:51.314Z,17.95
2019-03-29T08:30:20.591Z,18.53
2019-03-29T08:32:50.064Z,18.92
2019-03-29T08:35:19.411Z,18.61
2019-03-29T08:37:49.331Z,19.16
2019-03-29T08:40:18.644Z,19.31
2019-03-29T08:42:48.547Z,19.94
2019-03-29T08:45:17.931Z,15.81
2019-03-29T08:47:47.500Z,17.57
2019-03-29T08:50:17.156Z,16.56
2019-03-29T08:52:46.455Z,15.19
2019-03-29T08:55:17.758Z,16.12
2019-03-29T08:57:47.235Z,17.73
2019-03-29T09:00:19.960Z,17.09
2019-03-29T09:02:50.328Z,17.93
2019-03-29T09:05:19.728Z,18.05
2019-03-29T09:07:49.748Z,18.98
2019-03-29T09:10:28.322Z,19.64
2019-03-29T09:12:58.036Z,18.54
2019-03-29T09:15:27.398Z,20.45
2019-03-29T09:17:59.721Z,20.93
2019-03-29T09:20:27.852Z,20.42
2019-03-29T09:22:57.172Z,19.48
2019-03-29T09:25:26.448Z,19.42
2019-03-29T09:27:55.736Z,19.39
2019-03-29T09:30:25.194Z,19.59
2019-03-29T09:32:54.503Z,17.92
2019-03-29T09:35:24.094Z,18.99
2019-03-29T09:37:56.552Z,18.79
2019-03-29T09:40:25.162Z,19.88
2019-03-29T09:43:06.650Z,19.71
2019-03-29T09:45:25.990Z,21.32
2019-03-29T09:47:55.989Z,21.01
2019-03-29T09:50:25.457Z,20.16
2019-03-29T09:52:55.258Z,18.80
2019-03-29T09:55:24.558Z,22.05
2019-03-29T09:57:54.096Z,22.78
2019-03-29T10:00:23.847Z,19.82
2019-03-29T10:02:54.060Z,20.03
2019-03-29T10:05:23.476Z,20.28
2019-03-29T10:07:52.893Z,21.27
2019-03-29T10:10:22.359Z,22.29
2019-03-29T10:12:51.712Z,20.26
2019-03-29T10:15:21.072Z,19.03
2019-03-29T10:17:50.587Z,19.39
2019-03-29T10:20:20.110Z,19.68
2019-03-29T10:22:49.592Z,21.02
2019-03-29T10:25:20.329Z,20.28
2019-03-29T10:27:50.052Z,20.53
2019-03-29T10:30:22.403Z,21.41
2019-03-29T10:32:55.279Z,22.15
2019-03-29T10:35:22.983Z,22.05
2019-03-29T10:37:52.289Z,20.36
2019-03-29T10:40:21.977Z,21.66
2019-03-29T10:42:57.582Z,19.62
2019-03-29T10:45:22.936Z,21.98
2019-03-29T10:47:52.242Z,19.59
2019-03-29T10:50:21.701Z,21.65
2019-03-29T10:52:51.031Z,22.05
2019-03-29T10:55:20.562Z,21.58
2019-03-29T10:57:50.180Z,21.95
2019-03-29T11:00:34.167Z,21.14
2019-03-29T11:03:03.537Z,20.69
2019-03-29T11:05:33.307Z,20.86
2019-03-29T11:08:02.682Z,21.49
2019-03-29T11:10:34.548Z,21.31
2019-03-29T11:13:12.403Z,20.96
2019-03-29T11:15:35.679Z,19.71
2019-03-29T11:18:06.130Z,20.12
2019-03-29T11:20:35.507Z,19.67
2019-03-29T11:23:04.904Z,22.78
2019-03-29T11:25:34.255Z,23.04
2019-03-29T11:28:04.114Z,21.86
2019-03-29T11:30:41.946Z,24.97
2019-03-29T11:33:05.752Z,24.50
2019-03-29T11:35:35.166Z,24.21
2019-03-29T11:38:04.535Z,23.76
2019-03-29T11:40:33.841Z,22.58
2019-03-29T11:43:03.673Z,23.75
2019-03-29T11:45:34.203Z,21.69
2019-03-29T11:48:08.893Z,20.91
2019-03-29T11:50:35.376Z,21.72
2019-03-29T11:53:04.978Z,23.26
2019-03-29T11:55:34.284Z,22.04
2019-03-29T11:58:03.981Z,22.73
2019-03-29T12:00:35.015Z,25.07
2019-03-29T12:03:08.682Z,23.37
2019-03-29T12:05:36.550Z,19.20
2019-03-29T12:08:06.725Z,19.96
2019-03-29T12:10:36.366Z,20.07
2019-03-29T12:13:08.109Z,20.54
2019-03-29T12:15:37.931Z,21.11
2019-03-29T12:18:07.694Z,22.57
2019-03-29T12:20:37.375Z,23.60
2019-03-29T12:23:07.411Z,23.49
2019-03-29T12:25:36.689Z,25.19
2019-03-29T12:28:06.322Z,24.09
2019-03-29T12:30:36.084Z,25.59
2019-03-29T12:33:05.979Z,26.47
2019-03-29T12:35:35.609Z,26.32
2019-03-29T12:38:05.309Z,26.65
2019-03-29T12:40:34.998Z,24.55
2019-03-29T12:43:04.374Z,22.79
2019-03-29T12:45:34.174Z,22.72
2019-03-29T12:48:03.832Z,22.85
2019-03-29T12:50:33.625Z,21.74
2019-03-29T12:53:02.901Z,21.43
2019-03-29T12:55:32.275Z,19.52
2019-03-29T12:58:01.554Z,20.20
2019-03-29T13:00:31.405Z,19.84
2019-03-29T13:03:00.722Z,19.08
2019-03-29T13:05:30.005Z,20.14
2019-03-29T13:07:59.369Z,19.68
2019-03-29T13:10:28.655Z,19.69
2019-03-29T13:13:00.597Z,19.83
2019-03-29T13:15:29.215Z,19.11
2019-03-29T13:17:58.593Z,19.42
2019-03-29T13:20:27.963Z,18.84
2019-03-29T13:22:58.389Z,19.31
2019-03-29T13:25:27.773Z,19.40
2019-03-29T13:27:59.335Z,18.90
2019-03-29T13:30:29.187Z,18.46
2019-03-29T13:32:58.483Z,19.00
2019-03-29T13:35:27.863Z,18.48
2019-03-29T13:37:57.227Z,18.15
2019-03-29T13:40:26.815Z,18.88
2019-03-29T13:42:57.757Z,19.51
2019-03-29T13:45:28.017Z,19.07
2019-03-29T13:47:57.655Z,18.78
2019-03-29T13:50:27.234Z,19.16
2019-03-29T13:52:56.656Z,18.97
2019-03-29T13:55:26.129Z,18.78
2019-03-29T13:57:55.438Z,19.31
2019-03-29T14:00:24.746Z,19.21
2019-03-29T14:02:54.149Z,19.42
2019-03-29T14:05:25.288Z,19.34
2019-03-29T14:07:54.812Z,19.15
2019-03-29T14:10:24.192Z,19.18
2019-03-29T14:12:53.477Z,18.92
2019-03-29T14:15:22.777Z,18.41
2019-03-29T14:17:52.099Z,18.44
2019-03-29T14:20:32.630Z,18.79
2019-03-29T14:23:03.525Z,18.61
2019-03-29T14:25:32.803Z,18.94
2019-03-29T14:28:02.227Z,19.11
2019-03-29T14:30:31.855Z,19.01
2019-03-29T14:33:01.181Z,18.75
2019-03-29T14:35:30.653Z,19.20
2019-03-29T14:37:59.967Z,19.16
2019-03-29T14:40:29.329Z,18.79
2019-03-29T14:42:58.650Z,18.70
2019-03-29T14:45:28.192Z,19.01
2019-03-29T14:47:57.968Z,19.06
2019-03-29T14:50:27.250Z,19.07
2019-03-29T14:52:56.694Z,18.83
2019-03-29T14:55:25.983Z,18.99
2019-03-29T14:57:55.293Z,19.33
2019-03-29T15:00:36.094Z,19.19
2019-03-29T15:03:06.036Z,18.16
2019-03-29T15:05:35.431Z,18.07
2019-03-29T15:08:05.578Z,18.57
2019-03-29T15:10:35.053Z,18.81
2019-03-29T15:13:04.603Z,18.93
2019-03-29T15:15:33.961Z,18.38
2019-03-29T15:18:03.581Z,18.47
2019-03-29T15:20:32.879Z,18.72
2019-03-29T15:23:02.186Z,18.67
2019-03-29T15:25:31.556Z,18.67
2019-03-29T15:28:00.865Z,18.51
2019-03-29T15:30:30.567Z,18.37
2019-03-29T15:32:59.955Z,18.30
2019-03-29T15:35:29.284Z,18.52
2019-03-29T15:37:58.561Z,18.57
2019-03-29T15:40:27.971Z,18.38
2019-03-29T15:42:57.278Z,18.28
2019-03-29T15:45:26.567Z,18.59
2019-03-29T15:47:55.875Z,18.39
2019-03-29T15:50:25.164Z,18.46
2019-03-29T15:52:54.681Z,18.28
2019-03-29T15:55:24.197Z,18.28
2019-03-29T15:57:53.502Z,18.19
2019-03-29T16:00:23.076Z,18.15
2019-03-29T16:02:52.470Z,18.42
2019-03-29T16:05:21.917Z,18.43
2019-03-29T16:07:51.513Z,18.37
2019-03-29T16:10:20.822Z,18.18
2019-03-29T16:12:50.147Z,18.39
2019-03-29T16:15:33.264Z,18.25
2019-03-29T16:17:50.552Z,18.17
2019-03-29T16:20:19.852Z,18.27
2019-03-29T16:22:49.152Z,18.24
2019-03-29T16:25:18.694Z,18.20
2019-03-29T16:27:48.084Z,18.25
2019-03-29T16:30:18.022Z,18.03
2019-03-29T16:32:47.370Z,18.12
2019-03-29T16:35:16.670Z,17.90
2019-03-29T16:37:56.525Z,17.86
2019-03-29T16:40:17.111Z,17.93
2019-03-29T16:42:46.451Z,17.90
2019-03-29T16:45:15.830Z,17.88
2019-03-29T16:47:45.137Z,17.67
2019-03-29T16:50:14.492Z,17.67
2019-03-29T16:52:43.853Z,17.60
2019-03-29T16:55:14.224Z,17.57
2019-03-29T16:57:43.854Z,17.65
2019-03-29T17:00:13.779Z,17.63
2019-03-29T17:02:43.122Z,17.61
2019-03-29T17:05:12.654Z,17.77
2019-03-29T17:07:42.017Z,17.73
2019-03-29T17:10:11.439Z,17.61
2019-03-29T17:12:40.709Z,17.71
2019-03-29T17:15:11.865Z,17.67
2019-03-29T17:17:41.138Z,17.50
2019-03-29T17:20:11.195Z,17.51
2019-03-29T17:22:43.189Z,17.51
2019-03-29T17:25:11.821Z,17.21
2019-03-29T17:27:41.403Z,17.21
2019-03-29T17:30:13.496Z,17.03
2019-03-29T17:32:42.781Z,17.05
2019-03-29T17:35:12.401Z,17.06
2019-03-29T17:37:41.877Z,17.03
2019-03-29T17:40:11.927Z,16.96
2019-03-29T17:42:41.195Z,17.01
2019-03-29T17:45:11.142Z,16.81
2019-03-29T17:47:40.608Z,16.73
2019-03-29T17:50:10.057Z,16.60
2019-03-29T17:52:39.527Z,16.51
2019-03-29T17:55:08.941Z,16.46
2019-03-29T17:57:38.318Z,16.32
2019-03-29T18:00:09.455Z,16.34
2019-03-29T18:02:40.664Z,16.11
2019-03-29T18:05:10.224Z,15.97
2019-03-29T18:07:39.543Z,15.83
2019-03-29T18:10:09.588Z,15.94
2019-03-29T18:12:39.061Z,16.01
2019-03-29T18:15:09.784Z,15.87
2019-03-29T18:17:39.076Z,15.73
2019-03-29T18:20:09.731Z,15.64
2019-03-29T18:22:39.034Z,15.61
2019-03-29T18:25:08.775Z,15.61
2019-03-29T18:27:38.106Z,15.47
2019-03-29T18:30:09.165Z,15.36
2019-03-29T18:32:38.887Z,15.51
2019-03-29T18:35:10.357Z,15.34
2019-03-29T18:37:40.185Z,15.26
2019-03-29T18:40:12.560Z,15.23
2019-03-29T18:42:41.856Z,15.25
2019-03-29T18:45:11.658Z,15.29
2019-03-29T18:47:40.958Z,15.25
2019-03-29T18:50:10.406Z,15.34
2019-03-29T18:52:42.615Z,15.31
2019-03-29T18:55:12.285Z,15.11
2019-03-29T18:57:41.606Z,15.10
2019-03-29T19:00:11.426Z,15.17
2019-03-29T19:02:41.031Z,15.10
2019-03-29T19:05:13.415Z,15.06
2019-03-29T19:07:43.556Z,14.94
2019-03-29T19:10:12.918Z,14.98
2019-03-29T19:12:42.512Z,14.86
2019-03-29T19:15:12.274Z,14.91
2019-03-29T19:17:41.638Z,14.93
2019-03-29T19:20:11.339Z,14.95
2019-03-29T19:22:40.670Z,14.81
2019-03-29T19:25:10.218Z,14.88
2019-03-29T19:27:39.863Z,14.91
2019-03-29T19:30:10.886Z,14.92
2019-03-29T19:32:40.233Z,14.67
2019-03-29T19:35:09.619Z,14.38
2019-03-29T19:37:39.206Z,14.50
2019-03-29T19:40:09.131Z,14.57
2019-03-29T19:42:38.887Z,14.59
2019-03-29T19:45:10.111Z,14.56
2019-03-29T19:47:40.386Z,14.46
2019-03-29T19:50:12.370Z,14.18
2019-03-29T19:52:41.936Z,14.18
2019-03-29T19:55:11.832Z,14.21
2019-03-29T19:57:41.347Z,14.20
2019-03-29T20:00:13.597Z,14.17
2019-03-29T20:02:43.749Z,14.14
2019-03-29T20:05:25.314Z,14.06
2019-03-29T20:07:55.648Z,14.00
2019-03-29T20:10:25.485Z,13.95
2019-03-29T20:12:54.944Z,13.93
2019-03-29T20:15:25.099Z,13.79
2019-03-29T20:17:54.837Z,13.69
2019-03-29T20:20:25.954Z,13.66
2019-03-29T20:22:56.940Z,13.34
2019-03-29T20:25:26.998Z,13.42
2019-03-29T20:27:58.597Z,13.36
2019-03-29T20:30:28.512Z,13.20
2019-03-29T20:32:57.957Z,13.24
2019-03-29T20:35:27.286Z,13.00
2019-03-29T20:37:56.576Z,13.10
2019-03-29T20:40:25.944Z,13.12
2019-03-29T20:42:55.260Z,13.14
2019-03-29T20:45:24.673Z,13.11
2019-03-29T20:47:54.215Z,13.16
2019-03-29T20:50:23.509Z,12.89
2019-03-29T20:52:53.035Z,12.84
2019-03-29T20:55:22.716Z,12.62
2019-03-29T20:57:52.045Z,12.48
2019-03-29T21:00:21.468Z,12.56
2019-03-29T21:02:50.852Z,12.64
2019-03-29T21:05:20.204Z,12.67
2019-03-29T21:07:49.567Z,12.49
2019-03-29T21:10:18.896Z,12.58
2019-03-29T21:12:48.349Z,12.59
2019-03-29T21:15:18.270Z,12.47
2019-03-29T21:17:56.423Z,12.15
2019-03-29T21:20:19.440Z,12.10
2019-03-29T21:22:48.759Z,12.10
2019-03-29T21:25:18.075Z,11.72
2019-03-29T21:27:47.608Z,11.89
2019-03-29T21:30:18.614Z,11.98
2019-03-29T21:32:48.434Z,12.12
2019-03-29T21:35:17.751Z,11.90
2019-03-29T21:37:47.306Z,11.97
2019-03-29T21:40:17.479Z,11.85
2019-03-29T21:42:47.539Z,11.80
2019-03-29T21:45:27.948Z,11.87
2019-03-29T21:48:02.023Z,12.02
2019-03-29T21:50:20.140Z,12.08
2019-03-29T21:52:50.011Z,12.17
2019-03-29T21:55:19.387Z,12.14
2019-03-29T21:57:49.032Z,12.06
2019-03-29T22:00:20.042Z,12.14
2019-03-29T22:02:49.623Z,12.09
2019-03-29T22:05:18.964Z,12.03
2019-03-29T22:07:50.277Z,11.96
2019-03-29T22:10:19.894Z,11.73
2019-03-29T22:12:49.727Z,11.78
2019-03-29T22:15:19.160Z,11.70
2019-03-29T22:17:48.482Z,11.65
2019-03-29T22:20:17.856Z,11.72
2019-03-29T22:22:47.399Z,11.69
2019-03-29T22:25:16.925Z,11.64
2019-03-29T22:27:46.239Z,11.57
2019-03-29T22:30:17.450Z,11.62
2019-03-29T22:32:47.186Z,11.69
2019-03-29T22:35:16.712Z,11.67
2019-03-29T22:37:46.043Z,11.60
2019-03-29T22:40:15.792Z,11.47
2019-03-29T22:42:45.135Z,11.51
2019-03-29T22:45:14.634Z,11.37
2019-03-29T22:47:45.463Z,11.17
2019-03-29T22:50:15.233Z,10.88
2019-03-29T22:52:44.711Z,10.56
2019-03-29T22:55:14.049Z,10.37
2019-03-29T22:57:43.361Z,10.18
2019-03-29T23:00:38.493Z,10.14
2019-03-29T23:03:08.212Z,10.07
2019-03-29T23:05:37.697Z,9.93
2019-03-29T23:08:07.866Z,9.82
2019-03-29T23:10:37.318Z,9.54
2019-03-29T23:13:06.816Z,9.36
2019-03-29T23:15:36.186Z,9.37
2019-03-29T23:18:05.480Z,9.45
2019-03-29T23:20:34.853Z,9.41
2019-03-29T23:23:04.167Z,9.41
2019-03-29T23:25:33.474Z,9.41
2019-03-29T23:28:02.770Z,9.46
2019-03-29T23:30:32.081Z,9.38
2019-03-29T23:33:01.385Z,9.42
2019-03-29T23:35:30.678Z,9.12
2019-03-29T23:37:59.970Z,9.12
2019-03-29T23:40:29.257Z,9.17
2019-03-29T23:42:58.570Z,9.02
2019-03-29T23:45:27.945Z,8.88
2019-03-29T23:47:57.640Z,8.71
2019-03-29T23:50:26.949Z,8.62
2019-03-29T23:52:56.358Z,8.56
2019-03-29T23:55:25.651Z,8.62
2019-03-29T23:57:54.966Z,8.65
